createdAt,value
2022-09-15T00:05:01.717Z,7.00
2022-09-15T00:10:06.386Z,7.30
2022-09-15T00:15:09.895Z,6.70
2022-09-15T00:20:12.636Z,7.50
2022-09-15T00:25:15.577Z,7.80
2022-09-15T00:30:18.320Z,7.20
2022-09-15T00:35:21.147Z,6.70
2022-09-15T00:40:24.016Z,7.40
2022-09-15T00:45:27.385Z,6.90
2022-09-15T00:50:32.102Z,7.40
2022-09-15T00:55:54.349Z,6.70
2022-09-15T01:01:01.065Z,6.80
2022-09-15T01:06:20.025Z,6.60
2022-09-15T01:11:22.908Z,6.50
2022-09-15T01:22:07.364Z,7.00
2022-09-15T01:27:41.201Z,7.00
2022-09-15T01:33:06.798Z,6.60
2022-09-15T01:38:32.133Z,7.10
2022-09-15T01:43:40.313Z,6.90
2022-09-15T01:48:43.545Z,7.00
2022-09-15T01:53:47.427Z,6.50
2022-09-15T01:58:51.530Z,6.30
2022-09-15T02:04:18.226Z,6.30
2022-09-15T02:09:54.870Z,5.90
2022-09-15T02:15:08.755Z,6.20
2022-09-15T02:20:23.759Z,5.90
2022-09-15T02:25:32.811Z,6.70
2022-09-15T02:30:41.282Z,6.10
2022-09-15T02:35:44.359Z,6.90
2022-09-15T02:40:48.094Z,7.20
2022-09-15T02:45:51.328Z,6.80
2022-09-15T02:50:54.125Z,7.40
2022-09-15T02:55:58.123Z,6.80
2022-09-15T03:01:08.297Z,7.40
2022-09-15T03:06:19.892Z,6.80
2022-09-15T03:11:26.789Z,7.10
2022-09-15T03:16:32.523Z,7.10
2022-09-15T03:21:35.862Z,7.60
2022-09-15T03:26:38.692Z,7.50
2022-09-15T03:31:41.838Z,8.50
2022-09-15T03:36:44.755Z,7.70
2022-09-15T03:41:47.682Z,7.60
2022-09-15T03:46:51.259Z,7.50
2022-09-15T03:51:54.028Z,6.60
2022-09-15T03:56:57.125Z,7.20
2022-09-15T04:01:59.959Z,7.60
2022-09-15T04:07:02.707Z,8.00
2022-09-15T04:12:06.971Z,6.80
2022-09-15T04:17:10.965Z,5.90
2022-09-15T04:22:17.672Z,7.20
2022-09-15T04:27:21.113Z,7.30
2022-09-15T04:32:23.923Z,6.50
2022-09-15T04:37:26.841Z,7.40
2022-09-15T04:42:29.625Z,7.70
2022-09-15T04:47:32.330Z,7.00
2022-09-15T04:52:35.058Z,8.10
2022-09-15T04:57:37.827Z,8.30
2022-09-15T05:02:40.535Z,8.20
2022-09-15T05:07:43.660Z,7.90
2022-09-15T05:12:46.448Z,8.20
2022-09-15T05:17:49.985Z,7.30
2022-09-15T05:22:52.706Z,7.60
2022-09-15T05:27:55.446Z,8.80
2022-09-15T05:32:58.400Z,8.50
2022-09-15T05:38:01.125Z,9.80
2022-09-15T05:43:03.995Z,8.70
2022-09-15T05:48:06.781Z,7.90
2022-09-15T05:53:12.158Z,7.10
2022-09-15T06:03:30.926Z,7.00
2022-09-15T06:08:36.780Z,7.20
2022-09-15T06:13:40.485Z,8.10
2022-09-15T06:18:43.938Z,7.80
2022-09-15T06:23:53.996Z,6.90
2022-09-15T06:29:02.155Z,5.20
2022-09-15T06:34:11.552Z,5.30
2022-09-15T06:39:14.287Z,4.90
2022-09-15T06:44:17.423Z,4.50
2022-09-15T06:49:21.965Z,4.60
2022-09-15T06:54:24.749Z,4.00
2022-09-15T06:59:27.957Z,3.50
2022-09-15T07:04:38.398Z,6.00
2022-09-15T07:09:42.802Z,5.20
2022-09-15T07:14:47.068Z,5.00
2022-09-15T07:19:50.078Z,4.80
2022-09-15T07:24:52.972Z,6.20
2022-09-15T07:29:56.119Z,4.30
2022-09-15T07:34:59.397Z,6.50
2022-09-15T07:40:04.928Z,7.50
2022-09-15T07:45:08.371Z,4.60
2022-09-15T07:50:11.528Z,4.00
2022-09-15T07:55:15.768Z,3.80
2022-09-15T08:00:18.896Z,4.80
2022-09-15T08:05:26.119Z,2.30
2022-09-15T08:10:28.870Z,2.80
2022-09-15T08:15:31.809Z,2.30
2022-09-15T08:20:34.927Z,2.10
2022-09-15T08:25:40.846Z,2.70
2022-09-15T08:30:46.242Z,2.60
2022-09-15T08:35:49.212Z,1.80
2022-09-15T08:41:00.527Z,1.70
2022-09-15T08:46:09.221Z,1.90
2022-09-15T08:51:20.764Z,1.70
2022-09-15T08:56:23.532Z,2.70
2022-09-15T09:01:45.076Z,2.40
2022-09-15T09:07:14.604Z,2.60
2022-09-15T09:12:44.851Z,3.30
2022-09-15T09:18:27.020Z,1.70
2022-09-15T09:23:43.161Z,1.60
2022-09-15T09:28:50.373Z,2.90
2022-09-15T09:34:16.496Z,2.30
2022-09-15T09:39:19.292Z,1.60
2022-09-15T09:44:32.125Z,2.20
2022-09-15T09:49:40.044Z,2.50
2022-09-15T09:54:42.901Z,2.90
2022-09-15T09:59:47.743Z,3.60
2022-09-15T10:04:50.657Z,2.70
2022-09-15T10:09:59.842Z,3.50
2022-09-15T10:15:06.842Z,2.10
2022-09-15T10:20:25.552Z,2.30
2022-09-15T10:25:49.354Z,4.50
2022-09-15T10:31:03.348Z,2.00
2022-09-15T10:36:08.457Z,2.10
2022-09-15T10:41:31.200Z,3.40
2022-09-15T10:46:50.665Z,2.60
2022-09-15T10:52:13.634Z,3.70
2022-09-15T10:57:35.903Z,3.30
2022-09-15T11:03:09.834Z,2.80
2022-09-15T11:08:20.818Z,2.00
2022-09-15T11:13:26.740Z,1.80
2022-09-15T11:18:50.446Z,2.10
2022-09-15T11:24:34.225Z,3.00
2022-09-15T11:30:02.568Z,2.00
2022-09-15T11:35:38.464Z,2.50
2022-09-15T11:41:19.112Z,2.10
2022-09-15T11:46:51.014Z,2.10
2022-09-15T11:52:23.286Z,3.60
2022-09-15T11:57:32.211Z,3.60
2022-09-15T12:03:13.749Z,1.70
2022-09-15T12:08:27.436Z,2.40
2022-09-15T12:13:31.810Z,2.30
2022-09-15T12:18:54.369Z,2.50
2022-09-15T12:24:46.119Z,1.50
2022-09-15T12:29:57.524Z,2.20
2022-09-15T12:35:15.747Z,4.20
2022-09-15T12:40:33.557Z,2.00
2022-09-15T12:45:37.173Z,2.60
2022-09-15T12:50:43.447Z,1.90
2022-09-15T12:56:20.929Z,2.90
2022-09-15T13:01:24.655Z,2.50
2022-09-15T13:06:29.975Z,1.90
2022-09-15T13:11:47.545Z,1.70
2022-09-15T13:17:06.701Z,2.70
2022-09-15T13:22:12.152Z,2.50
2022-09-15T13:27:22.423Z,2.60
2022-09-15T13:32:40.348Z,2.90
2022-09-15T13:38:32.272Z,1.50
2022-09-15T13:44:18.003Z,3.20
2022-09-15T13:49:49.446Z,4.30
2022-09-15T13:55:21.769Z,3.40
2022-09-15T14:00:24.748Z,2.80
2022-09-15T14:05:31.050Z,2.80
2022-09-15T14:10:42.134Z,3.80
2022-09-15T14:16:02.299Z,1.70
2022-09-15T14:21:06.076Z,1.70
2022-09-15T14:26:14.932Z,1.50
2022-09-15T14:31:26.521Z,1.40
2022-09-15T14:36:33.708Z,1.30
2022-09-15T14:41:37.131Z,1.40
2022-09-15T14:46:39.936Z,1.30
2022-09-15T14:51:49.141Z,1.40
2022-09-15T14:56:54.199Z,1.20
2022-09-15T15:02:06.259Z,1.50
2022-09-15T15:07:20.123Z,1.60
2022-09-15T15:12:36.226Z,2.30
2022-09-15T15:17:51.102Z,1.20
2022-09-15T15:23:24.577Z,1.70
2022-09-15T15:28:37.761Z,1.20
2022-09-15T15:34:24.270Z,1.10
2022-09-15T15:39:27.090Z,1.20
2022-09-15T15:44:31.476Z,1.00
2022-09-15T15:49:34.708Z,1.00
2022-09-15T15:54:41.862Z,0.90
2022-09-15T15:59:46.950Z,1.00
2022-09-15T16:04:49.913Z,0.90
2022-09-15T16:09:56.430Z,0.80
2022-09-15T16:14:59.162Z,0.90
2022-09-15T16:20:02.432Z,1.00
2022-09-15T16:25:21.510Z,1.10
2022-09-15T16:30:24.293Z,1.00
2022-09-15T16:35:46.017Z,1.20
2022-09-15T16:40:51.435Z,1.50
2022-09-15T16:45:55.240Z,1.30
2022-09-15T16:56:21.120Z,1.60
2022-09-15T17:01:25.619Z,2.00
2022-09-15T17:06:29.094Z,3.70
2022-09-15T17:11:32.313Z,2.60
2022-09-15T17:16:35.083Z,3.30
2022-09-15T17:21:37.859Z,2.20
2022-09-15T17:26:41.061Z,1.80
2022-09-15T17:31:43.811Z,1.30
2022-09-15T17:36:46.721Z,1.20
2022-09-15T17:41:49.516Z,1.50
2022-09-15T17:46:53.733Z,1.60
2022-09-15T17:51:56.518Z,5.00
2022-09-15T17:56:59.649Z,11.20
2022-09-15T18:02:02.557Z,10.00
2022-09-15T18:07:11.629Z,9.40
2022-09-15T18:12:14.777Z,8.00
2022-09-15T18:17:17.718Z,9.00
2022-09-15T18:22:23.029Z,8.10
2022-09-15T18:27:25.950Z,6.20
2022-09-15T18:32:28.741Z,5.30
2022-09-15T18:37:31.621Z,4.20
2022-09-15T18:42:35.396Z,4.40
2022-09-15T18:47:38.604Z,2.70
2022-09-15T18:52:41.957Z,1.90
2022-09-15T18:57:45.466Z,1.90
2022-09-15T19:02:48.864Z,2.10
2022-09-15T19:07:51.663Z,2.20
2022-09-15T19:12:54.777Z,1.60
2022-09-15T19:17:57.772Z,1.70
2022-09-15T19:23:00.610Z,2.30
2022-09-15T19:28:03.849Z,2.10
2022-09-15T19:33:06.954Z,2.40
2022-09-15T19:38:09.783Z,2.30
2022-09-15T19:43:12.651Z,1.90
2022-09-15T19:48:15.543Z,2.30
2022-09-15T19:53:18.744Z,2.40
2022-09-15T19:58:21.664Z,2.00
2022-09-15T20:03:29.348Z,2.00
2022-09-15T20:08:32.838Z,2.20
2022-09-15T20:13:41.420Z,2.20
2022-09-15T20:18:48.843Z,2.00
2022-09-15T20:23:52.929Z,2.10
2022-09-15T20:28:55.658Z,2.40
2022-09-15T20:34:00.973Z,1.90
2022-09-15T20:39:06.617Z,2.30
2022-09-15T20:44:09.585Z,2.00
2022-09-15T20:49:12.794Z,2.20
2022-09-15T20:54:15.639Z,1.90
2022-09-15T20:59:19.488Z,2.30
2022-09-15T21:04:22.351Z,1.80
2022-09-15T21:09:25.675Z,1.80
2022-09-15T21:14:28.455Z,1.90
2022-09-15T21:19:31.661Z,1.90
2022-09-15T21:24:34.350Z,1.90
2022-09-15T21:29:37.189Z,2.10
2022-09-15T21:34:39.955Z,2.10
2022-09-15T21:39:43.300Z,1.90
2022-09-15T21:44:46.116Z,2.30
2022-09-15T21:49:49.225Z,2.10
2022-09-15T21:54:52.024Z,2.30
2022-09-15T21:59:54.793Z,2.30
2022-09-15T22:04:59.758Z,1.90
2022-09-15T22:10:02.447Z,2.50
2022-09-15T22:15:06.309Z,2.50
2022-09-15T22:20:09.462Z,2.10
2022-09-15T22:25:12.441Z,2.30
2022-09-15T22:30:15.185Z,2.10
2022-09-15T22:35:18.021Z,2.20
2022-09-15T22:40:20.977Z,2.00
2022-09-15T22:45:23.781Z,2.40
2022-09-15T22:50:26.487Z,2.10
2022-09-15T22:55:32.416Z,2.00
2022-09-15T23:00:38.296Z,1.80
2022-09-15T23:05:41.395Z,1.70
2022-09-15T23:10:44.098Z,2.10
2022-09-15T23:15:49.116Z,2.00
2022-09-15T23:21:07.446Z,2.00
2022-09-15T23:26:12.144Z,1.70
2022-09-15T23:31:15.733Z,1.60
2022-09-15T23:36:22.018Z,1.70
2022-09-15T23:41:24.868Z,1.80
2022-09-15T23:46:27.607Z,1.70
2022-09-15T23:51:31.199Z,2.00
2022-09-15T23:56:34.047Z,2.10
